createdAt,value
2022-09-24T00:00:32.717Z,100907.56
2022-09-24T00:01:55.301Z,100898.81
2022-09-24T00:02:56.941Z,100899.81
2022-09-24T00:04:01.808Z,100904.34
2022-09-24T00:05:04.691Z,100899.97
2022-09-24T00:06:07.304Z,100900.81
2022-09-24T00:07:09.777Z,100896.31
2022-09-24T00:08:11.600Z,100899.00
2022-09-24T00:09:16.460Z,100901.66
2022-09-24T00:10:18.024Z,100894.63
2022-09-24T00:11:22.858Z,100898.16
2022-09-24T00:12:25.778Z,100893.78
2022-09-24T00:13:27.768Z,100899.13
2022-09-24T00:14:30.336Z,100893.94
2022-09-24T00:15:36.677Z,100901.13
2022-09-24T00:16:41.182Z,100898.59
2022-09-24T00:17:42.807Z,100897.94
2022-09-24T00:18:45.631Z,100891.88
2022-09-24T00:19:47.157Z,100895.56
2022-09-24T00:20:49.742Z,100892.03
2022-09-24T00:21:52.208Z,100899.22
2022-09-24T00:22:53.702Z,100903.91
2022-09-24T00:23:58.083Z,100898.53
2022-09-24T00:25:18.233Z,100900.50
2022-09-24T00:26:40.624Z,100895.34
2022-09-24T00:27:42.649Z,100899.84
2022-09-24T00:28:45.122Z,100898.16
2022-09-24T00:29:46.751Z,100890.13
2022-09-24T00:30:49.347Z,100899.97
2022-09-24T00:31:52.717Z,100896.47
2022-09-24T00:32:55.303Z,100895.66
2022-09-24T00:33:58.269Z,100897.47
2022-09-24T00:35:00.770Z,100898.47
2022-09-24T00:36:05.383Z,100893.94
2022-09-24T00:37:07.891Z,100901.13
2022-09-24T00:38:10.533Z,100897.47
2022-09-24T00:39:13.417Z,100893.09
2022-09-24T00:40:15.788Z,100897.63
2022-09-24T00:41:19.900Z,100892.13
2022-09-24T00:42:22.772Z,100897.47
2022-09-24T00:43:28.010Z,100893.09
2022-09-24T00:44:50.668Z,100897.63
2022-09-24T00:45:56.374Z,100893.28
2022-09-24T00:46:57.973Z,100895.09
2022-09-24T00:48:00.619Z,100897.03
2022-09-24T00:49:06.152Z,100899.72
2022-09-24T00:50:18.165Z,100902.41
2022-09-24T00:51:25.293Z,100896.06
2022-09-24T00:52:27.904Z,100897.03
2022-09-24T00:53:33.158Z,100897.88
2022-09-24T00:54:37.246Z,100891.69
2022-09-24T00:55:40.931Z,100895.22
2022-09-24T00:56:45.971Z,100890.72
2022-09-24T00:57:51.149Z,100890.72
2022-09-24T00:58:57.114Z,100891.56
2022-09-24T00:59:59.304Z,100893.38
2022-09-24T01:01:06.953Z,100886.34
2022-09-24T01:02:08.736Z,100899.59
2022-09-24T01:03:15.115Z,100892.44
2022-09-24T01:04:21.060Z,100896.06
2022-09-24T01:05:23.771Z,100887.19
2022-09-24T01:06:25.796Z,100881.84
2022-09-24T01:07:28.350Z,100892.44
2022-09-24T01:08:30.077Z,100884.50
2022-09-24T01:09:32.817Z,100888.03
2022-09-24T01:10:48.983Z,100882.69
2022-09-24T01:12:00.217Z,100882.69
2022-09-24T01:13:12.315Z,100894.22
2022-09-24T01:14:42.461Z,100887.19
2022-09-24T01:15:49.861Z,100887.19
2022-09-24T01:16:59.801Z,100881.00
2022-09-24T01:18:07.159Z,100884.50
2022-09-24T01:19:30.366Z,100880.16
2022-09-24T01:20:52.406Z,100873.13
2022-09-24T01:21:58.508Z,100872.28
2022-09-24T01:23:17.039Z,100870.59
2022-09-24T01:24:40.294Z,100876.78
2022-09-24T01:26:00.028Z,100871.63
2022-09-24T01:27:07.614Z,100868.78
2022-09-24T01:28:31.958Z,100873.28
2022-09-24T01:29:49.946Z,100868.94
2022-09-24T01:30:59.562Z,100868.94
2022-09-24T01:32:07.703Z,100871.75
2022-09-24T01:33:13.149Z,100870.91
2022-09-24T01:34:21.997Z,100875.41
2022-09-24T01:35:28.562Z,100874.56
2022-09-24T01:36:32.690Z,100871.09
2022-09-24T01:37:37.593Z,100867.56
2022-09-24T01:38:44.217Z,100871.22
2022-09-24T01:39:47.382Z,100870.38
2022-09-24T01:40:52.509Z,100869.53
2022-09-24T01:41:54.655Z,100864.19
2022-09-24T01:42:59.788Z,100860.81
2022-09-24T01:44:07.737Z,100866.03
2022-09-24T01:45:12.874Z,100864.19
2022-09-24T01:46:16.895Z,100866.84
2022-09-24T01:47:25.510Z,100862.53
2022-09-24T01:48:27.269Z,100862.53
2022-09-24T01:49:30.242Z,100858.16
2022-09-24T01:50:38.598Z,100856.31
2022-09-24T01:51:48.171Z,100852.81
2022-09-24T01:52:56.608Z,100851.09
2022-09-24T01:54:03.520Z,100852.94
2022-09-24T01:55:09.072Z,100849.28
2022-09-24T01:56:16.273Z,100856.47
2022-09-24T01:57:23.674Z,100856.63
2022-09-24T01:58:33.907Z,100849.59
2022-09-24T01:59:40.544Z,100848.75
2022-09-24T02:00:50.674Z,100852.44
2022-09-24T02:01:58.943Z,100846.25
2022-09-24T02:03:06.244Z,100856.09
2022-09-24T02:04:14.414Z,100855.13
2022-09-24T02:05:21.869Z,100856.09
2022-09-24T02:06:29.068Z,100853.25
2022-09-24T02:07:36.643Z,100848.75
2022-09-24T02:08:40.558Z,100846.91
2022-09-24T02:09:44.864Z,100843.56
2022-09-24T02:10:52.691Z,100843.41
2022-09-24T02:11:57.343Z,100844.25
2022-09-24T02:13:03.636Z,100840.59
2022-09-24T02:14:10.175Z,100839.56
2022-09-24T02:15:15.017Z,100836.06
2022-09-24T02:16:24.648Z,100844.09
2022-09-24T02:17:32.729Z,100847.59
2022-09-24T02:18:39.119Z,100846.78
2022-09-24T02:19:42.409Z,100840.59
2022-09-24T02:20:45.699Z,100847.59
2022-09-24T02:21:48.064Z,100844.09
2022-09-24T02:22:52.758Z,100843.09
2022-09-24T02:23:59.540Z,100843.09
2022-09-24T02:25:05.382Z,100839.56
2022-09-24T02:26:07.143Z,100842.09
2022-09-24T02:27:09.726Z,100837.72
2022-09-24T02:28:11.319Z,100841.13
2022-09-24T02:29:14.572Z,100827.03
2022-09-24T02:30:16.851Z,100834.06
2022-09-24T02:31:26.663Z,100833.22
2022-09-24T02:32:31.558Z,100826.19
2022-09-24T02:33:54.163Z,100823.50
2022-09-24T02:35:02.484Z,100827.22
2022-09-24T02:36:04.182Z,100828.19
2022-09-24T02:37:08.878Z,100823.81
2022-09-24T02:38:16.163Z,100823.69
2022-09-24T02:39:19.236Z,100823.69
2022-09-24T02:40:21.075Z,100822.00
2022-09-24T02:41:25.743Z,100823.69
2022-09-24T02:42:27.392Z,100823.69
2022-09-24T02:43:30.073Z,100822.69
2022-09-24T02:44:32.460Z,100810.97
2022-09-24T02:45:35.095Z,100808.31
2022-09-24T02:46:39.148Z,100806.47
2022-09-24T02:47:41.756Z,100808.31
2022-09-24T02:48:43.306Z,100806.66
2022-09-24T02:49:45.770Z,100810.97
2022-09-24T02:50:47.476Z,100811.84
2022-09-24T02:51:49.970Z,100803.97
2022-09-24T02:52:51.845Z,100799.44
2022-09-24T02:53:55.332Z,100798.75
2022-09-24T02:54:56.898Z,100797.91
2022-09-24T02:56:00.791Z,100795.25
2022-09-24T02:57:02.380Z,100798.22
2022-09-24T02:58:04.844Z,100795.56
2022-09-24T02:59:07.629Z,100799.38
2022-09-24T03:00:11.618Z,100797.56
2022-09-24T03:01:16.390Z,100793.38
2022-09-24T03:02:20.297Z,100799.53
2022-09-24T03:03:22.989Z,100806.88
2022-09-24T03:04:26.181Z,100807.06
2022-09-24T03:05:27.790Z,100794.66
2022-09-24T03:06:30.897Z,100808.19
2022-09-24T03:07:32.401Z,100804.66
2022-09-24T03:08:35.673Z,100799.47
2022-09-24T03:09:37.256Z,100803.13
2022-09-24T03:10:39.838Z,100801.47
2022-09-24T03:11:41.537Z,100798.81
2022-09-24T03:12:44.298Z,100794.44
2022-09-24T03:13:45.991Z,100795.41
2022-09-24T03:14:48.525Z,100792.75
2022-09-24T03:15:50.101Z,100793.72
2022-09-24T03:16:52.946Z,100794.56
2022-09-24T03:17:56.033Z,100786.72
2022-09-24T03:18:58.516Z,100784.06
2022-09-24T03:20:00.054Z,100784.19
2022-09-24T03:21:06.409Z,100788.69
2022-09-24T03:22:07.917Z,100786.19
2022-09-24T03:23:10.733Z,100790.69
2022-09-24T03:24:12.233Z,100786.34
2022-09-24T03:25:14.797Z,100792.53
2022-09-24T03:26:18.127Z,100791.00
2022-09-24T03:27:20.204Z,100786.63
2022-09-24T03:28:23.274Z,100786.63
2022-09-24T03:29:39.700Z,100782.31
2022-09-24T03:30:59.969Z,100784.28
2022-09-24T03:32:03.330Z,100777.22
2022-09-24T03:33:06.427Z,100779.09
2022-09-24T03:34:09.747Z,100772.91
2022-09-24T03:35:12.034Z,100777.53
2022-09-24T03:36:17.275Z,100778.38
2022-09-24T03:37:18.917Z,100774.88
2022-09-24T03:38:21.376Z,100773.22
2022-09-24T03:39:22.911Z,100775.72
2022-09-24T03:40:26.164Z,100767.03
2022-09-24T03:41:28.225Z,100774.19
2022-09-24T03:42:30.818Z,100772.50
2022-09-24T03:43:33.738Z,100777.84
2022-09-24T03:44:36.203Z,100775.34
2022-09-24T03:45:38.549Z,100773.66
2022-09-24T03:46:41.158Z,100774.66
2022-09-24T03:47:43.132Z,100771.16
2022-09-24T03:48:47.174Z,100769.47
2022-09-24T03:49:48.859Z,100767.78
2022-09-24T03:50:51.635Z,100762.44
2022-09-24T03:51:53.156Z,100771.44
2022-09-24T03:52:55.637Z,100766.09
2022-09-24T03:53:57.189Z,100769.78
2022-09-24T03:54:59.752Z,100767.09
2022-09-24T03:56:02.365Z,100770.75
2022-09-24T03:57:04.863Z,100767.25
2022-09-24T03:58:06.505Z,100761.06
2022-09-24T03:59:10.773Z,100771.75
2022-09-24T04:00:12.998Z,100770.94
2022-09-24T04:01:21.198Z,100773.75
2022-09-24T04:02:23.047Z,100769.25
2022-09-24T04:03:26.186Z,100766.69
2022-09-24T04:04:29.055Z,100764.03
2022-09-24T04:05:31.548Z,100763.34
2022-09-24T04:06:33.270Z,100758.84
2022-09-24T04:07:35.758Z,100763.34
2022-09-24T04:08:37.375Z,100763.34
2022-09-24T04:09:39.929Z,100765.03
2022-09-24T04:10:41.531Z,100767.72
2022-09-24T04:11:44.659Z,100770.38
2022-09-24T04:12:46.238Z,100767.72
2022-09-24T04:13:48.746Z,100767.72
2022-09-24T04:14:50.498Z,100765.84
2022-09-24T04:15:53.570Z,100766.69
2022-09-24T04:16:55.220Z,100763.19
2022-09-24T04:17:59.357Z,100765.03
2022-09-24T04:19:01.887Z,100775.75
2022-09-24T04:20:06.467Z,100767.72
2022-09-24T04:21:09.441Z,100762.38
2022-09-24T04:22:11.063Z,100762.50
2022-09-24T04:23:13.904Z,100765.34
2022-09-24T04:24:15.463Z,100763.50
2022-09-24T04:25:18.462Z,100765.34
2022-09-24T04:26:20.666Z,100769.00
2022-09-24T04:27:23.490Z,100773.50
2022-09-24T04:28:25.156Z,100761.97
2022-09-24T04:29:27.634Z,100759.31
2022-09-24T04:30:30.653Z,100759.16
2022-09-24T04:31:33.524Z,100762.81
2022-09-24T04:32:35.112Z,100758.44
2022-09-24T04:33:37.664Z,100762.81
2022-09-24T04:34:39.189Z,100761.13
2022-09-24T04:35:43.015Z,100768.28
2022-09-24T04:36:44.529Z,100758.63
2022-09-24T04:37:48.141Z,100760.44
2022-09-24T04:38:50.164Z,100759.59
2022-09-24T04:39:52.664Z,100764.94
2022-09-24T04:40:55.284Z,100768.47
2022-09-24T04:41:57.455Z,100762.28
2022-09-24T04:43:00.020Z,100762.94
2022-09-24T04:44:02.101Z,100763.97
2022-09-24T04:45:05.850Z,100768.28
2022-09-24T04:46:08.488Z,100762.94
2022-09-24T04:47:11.424Z,100769.13
2022-09-24T04:48:13.217Z,100768.28
2022-09-24T04:49:15.749Z,100765.63
2022-09-24T04:50:17.510Z,100769.31
2022-09-24T04:51:21.929Z,100766.47
2022-09-24T04:52:26.705Z,100771.97
2022-09-24T04:53:29.218Z,100770.28
2022-09-24T04:54:30.940Z,100767.63
2022-09-24T04:55:33.457Z,100767.78
2022-09-24T04:56:35.123Z,100769.44
2022-09-24T04:57:37.954Z,100770.47
2022-09-24T04:58:39.951Z,100765.94
2022-09-24T04:59:42.913Z,100768.59
2022-09-24T05:00:44.432Z,100765.25
2022-09-24T05:01:47.171Z,100771.56
2022-09-24T05:02:56.274Z,100769.91
2022-09-24T05:04:01.917Z,100766.53
2022-09-24T05:05:03.710Z,100768.53
2022-09-24T05:06:10.059Z,100766.84
2022-09-24T05:07:13.027Z,100773.03
2022-09-24T05:08:15.585Z,100774.19
2022-09-24T05:09:17.455Z,100768.84
2022-09-24T05:10:20.407Z,100767.00
2022-09-24T05:11:22.235Z,100759.81
2022-09-24T05:12:24.884Z,100769.69
2022-09-24T05:13:27.386Z,100769.69
2022-09-24T05:14:30.121Z,100759.97
2022-09-24T05:15:32.085Z,100763.50
2022-09-24T05:16:35.021Z,100762.78
2022-09-24T05:17:38.743Z,100760.97
2022-09-24T05:18:41.220Z,100758.47
2022-09-24T05:19:42.936Z,100761.13
2022-09-24T05:20:45.438Z,100768.13
2022-09-24T05:21:47.106Z,100757.63
2022-09-24T05:22:51.464Z,100756.78
2022-09-24T05:23:53.471Z,100765.47
2022-09-24T05:24:55.978Z,100765.47
2022-09-24T05:26:16.091Z,100760.13
2022-09-24T05:27:19.562Z,100764.47
2022-09-24T05:28:22.228Z,100761.81
2022-09-24T05:29:23.961Z,100760.13
2022-09-24T05:30:26.853Z,100753.13
2022-09-24T05:31:28.480Z,100765.47
2022-09-24T05:32:31.999Z,100761.81
2022-09-24T05:33:33.540Z,100759.31
2022-09-24T05:34:36.383Z,100768.13
2022-09-24T05:35:38.019Z,100760.13
2022-09-24T05:36:40.580Z,100763.63
2022-09-24T05:37:43.074Z,100766.31
2022-09-24T05:38:45.946Z,100757.31
2022-09-24T05:39:48.661Z,100759.13
2022-09-24T05:40:50.562Z,100763.50
2022-09-24T05:41:53.114Z,100763.50
2022-09-24T05:43:00.414Z,100759.81
2022-09-24T05:44:03.133Z,100760.66
2022-09-24T05:45:06.235Z,100767.81
2022-09-24T05:46:08.893Z,100764.19
2022-09-24T05:47:11.935Z,100765.88
2022-09-24T05:48:14.463Z,100766.84
2022-09-24T05:49:16.581Z,100767.81
2022-09-24T05:50:19.260Z,100771.34
2022-09-24T05:51:20.788Z,100773.88
2022-09-24T05:52:23.263Z,100768.53
2022-09-24T05:53:24.792Z,100768.38
2022-09-24T05:54:28.767Z,100775.41
2022-09-24T05:55:32.519Z,100770.91
2022-09-24T05:56:36.012Z,100770.91
2022-09-24T05:57:38.008Z,100773.56
2022-09-24T05:58:40.511Z,100773.56
2022-09-24T05:59:42.022Z,100771.75
2022-09-24T06:00:45.391Z,100770.75
2022-09-24T06:01:47.016Z,100777.78
2022-09-24T06:02:50.568Z,100779.47
2022-09-24T06:03:52.284Z,100786.63
2022-09-24T06:04:54.761Z,100781.97
2022-09-24T06:05:59.553Z,100772.13
2022-09-24T06:07:03.292Z,100780.97
2022-09-24T06:08:05.537Z,100788.03
2022-09-24T06:09:09.909Z,100781.66
2022-09-24T06:10:13.296Z,100779.69
2022-09-24T06:11:15.849Z,100786.03
2022-09-24T06:12:17.516Z,100787.72
2022-09-24T06:13:21.845Z,100786.72
2022-09-24T06:14:23.433Z,100775.88
2022-09-24T06:15:27.150Z,100784.72
2022-09-24T06:16:29.127Z,100781.91
2022-09-24T06:17:32.363Z,100776.53
2022-09-24T06:18:35.039Z,100783.44
2022-09-24T06:19:37.525Z,100787.94
2022-09-24T06:20:40.077Z,100776.28
2022-09-24T06:21:42.550Z,100784.13
2022-09-24T06:22:44.059Z,100781.31
2022-09-24T06:23:46.731Z,100781.16
2022-09-24T06:24:48.345Z,100788.84
2022-09-24T06:25:52.243Z,100786.88
2022-09-24T06:26:54.090Z,100787.56
2022-09-24T06:28:00.492Z,100783.75
2022-09-24T06:29:05.277Z,100791.63
2022-09-24T06:30:08.616Z,100792.16
2022-09-24T06:31:12.439Z,100794.66
2022-09-24T06:32:14.042Z,100792.69
2022-09-24T06:33:16.603Z,100794.34
2022-09-24T06:34:18.128Z,100793.22
2022-09-24T06:35:20.819Z,100798.41
2022-09-24T06:36:22.365Z,100798.09
2022-09-24T06:37:24.920Z,100793.44
2022-09-24T06:38:27.304Z,100794.13
2022-09-24T06:39:29.817Z,100797.47
2022-09-24T06:40:36.508Z,100795.50
2022-09-24T06:41:41.166Z,100797.03
2022-09-24T06:42:42.753Z,100793.19
2022-09-24T06:43:45.644Z,100802.75
2022-09-24T06:44:48.262Z,100797.25
2022-09-24T06:45:50.944Z,100797.78
2022-09-24T06:46:52.583Z,100800.28
2022-09-24T06:47:56.043Z,100801.97
2022-09-24T06:48:57.565Z,100804.34
2022-09-24T06:50:00.128Z,100799.81
2022-09-24T06:51:05.842Z,100799.81
2022-09-24T06:52:07.384Z,100801.66
2022-09-24T06:53:11.255Z,100801.66
2022-09-24T06:54:13.967Z,100806.16
2022-09-24T06:55:16.623Z,100808.00
2022-09-24T06:56:19.132Z,100799.97
2022-09-24T06:57:26.604Z,100805.00
2022-09-24T06:58:31.732Z,100805.84
2022-09-24T06:59:33.244Z,100804.03
2022-09-24T07:00:37.357Z,100796.84
2022-09-24T07:01:39.182Z,100801.34
2022-09-24T07:02:42.451Z,100810.34
2022-09-24T07:03:44.999Z,100798.84
2022-09-24T07:04:46.577Z,100792.66
2022-09-24T07:05:49.351Z,100807.69
2022-09-24T07:07:09.494Z,100806.03
2022-09-24T07:08:12.341Z,100803.34
2022-09-24T07:09:13.857Z,100802.50
2022-09-24T07:10:16.857Z,100802.34
2022-09-24T07:11:21.072Z,100808.69
2022-09-24T07:12:24.234Z,100804.03
2022-09-24T07:13:26.804Z,100805.72
2022-09-24T07:14:28.382Z,100801.22
2022-09-24T07:15:30.889Z,100801.03
2022-09-24T07:16:33.796Z,100810.88
2022-09-24T07:17:35.876Z,100806.38
2022-09-24T07:18:38.672Z,100798.03
2022-09-24T07:19:41.942Z,100802.13
2022-09-24T07:20:45.042Z,100807.34
2022-09-24T07:21:47.485Z,100806.19
2022-09-24T07:22:49.964Z,100805.88
2022-09-24T07:23:58.814Z,100814.41
2022-09-24T07:25:00.440Z,100813.25
2022-09-24T07:26:09.029Z,100807.59
2022-09-24T07:27:21.278Z,100809.28
2022-09-24T07:28:35.117Z,100813.47
2022-09-24T07:29:37.053Z,100814.31
2022-09-24T07:30:42.060Z,100823.03
2022-09-24T07:31:43.650Z,100816.69
2022-09-24T07:32:46.332Z,100817.34
2022-09-24T07:33:47.841Z,100818.06
2022-09-24T07:34:50.600Z,100822.38
2022-09-24T07:35:53.787Z,100816.22
2022-09-24T07:37:04.708Z,100820.56
2022-09-24T07:38:13.227Z,100827.59
2022-09-24T07:39:15.192Z,100824.78
2022-09-24T07:40:18.021Z,100816.75
2022-09-24T07:41:20.124Z,100813.03
2022-09-24T07:42:22.629Z,100825.44
2022-09-24T07:43:25.275Z,100819.91
2022-09-24T07:44:29.358Z,100816.09
2022-09-24T07:45:33.343Z,100818.63
2022-09-24T07:46:34.972Z,100829.84
2022-09-24T07:47:37.669Z,100826.19
2022-09-24T07:48:40.378Z,100825.84
2022-09-24T07:49:45.316Z,100828.38
2022-09-24T07:50:47.965Z,100827.22
2022-09-24T07:51:49.680Z,100831.44
2022-09-24T07:52:52.454Z,100830.44
2022-09-24T07:54:00.069Z,100828.56
2022-09-24T07:55:06.173Z,100826.59
2022-09-24T07:56:09.435Z,100824.56
2022-09-24T07:57:13.478Z,100821.75
2022-09-24T07:58:16.073Z,100825.28
2022-09-24T07:59:20.140Z,100825.94
2022-09-24T08:00:25.519Z,100824.78
2022-09-24T08:01:27.575Z,100826.63
2022-09-24T08:02:30.319Z,100830.97
2022-09-24T08:03:32.923Z,100830.97
2022-09-24T08:04:34.902Z,100830.00
2022-09-24T08:05:43.005Z,100824.78
2022-09-24T08:06:47.555Z,100835.34
2022-09-24T08:07:53.012Z,100835.34
2022-09-24T08:08:56.342Z,100831.50
2022-09-24T08:10:01.399Z,100836.69
2022-09-24T08:11:10.548Z,100833.00
2022-09-24T08:12:13.052Z,100833.88
2022-09-24T08:13:14.711Z,100831.72
2022-09-24T08:14:19.712Z,100836.75
2022-09-24T08:15:26.317Z,100835.56
2022-09-24T08:16:29.012Z,100829.03
2022-09-24T08:17:31.490Z,100834.13
2022-09-24T08:18:34.469Z,100838.31
2022-09-24T08:19:36.052Z,100838.13
2022-09-24T08:20:39.557Z,100837.13
2022-09-24T08:21:42.575Z,100833.47
2022-09-24T08:22:46.446Z,100839.66
2022-09-24T08:23:48.329Z,100840.34
2022-09-24T08:24:51.349Z,100840.16
2022-09-24T08:25:54.247Z,100836.47
2022-09-24T08:26:59.697Z,100838.19
2022-09-24T08:28:02.070Z,100845.25
2022-09-24T08:29:04.670Z,100836.19
2022-09-24T08:30:07.509Z,100844.94
2022-09-24T08:31:14.370Z,100839.38
2022-09-24T08:32:16.158Z,100830.50
2022-09-24T08:33:19.021Z,100831.34
2022-09-24T08:34:20.770Z,100836.22
2022-09-24T08:35:23.531Z,100836.22
2022-09-24T08:36:25.070Z,100836.06
2022-09-24T08:37:28.853Z,100834.22
2022-09-24T08:38:30.696Z,100838.59
2022-09-24T08:39:33.756Z,100831.22
2022-09-24T08:40:39.297Z,100833.75
2022-09-24T08:41:56.894Z,100837.09
2022-09-24T08:43:07.803Z,100832.56
2022-09-24T08:44:37.201Z,100837.94
2022-09-24T08:46:02.502Z,100834.25
2022-09-24T08:47:24.911Z,100834.25
2022-09-24T08:48:31.588Z,100832.56
2022-09-24T08:49:40.125Z,100838.59
2022-09-24T08:50:48.563Z,100838.44
2022-09-24T08:52:02.127Z,100837.28
2022-09-24T08:53:14.022Z,100842.31
2022-09-24T08:54:16.224Z,100841.13
2022-09-24T08:55:23.880Z,100848.69
2022-09-24T08:56:35.915Z,100835.94
2022-09-24T08:57:45.616Z,100847.19
2022-09-24T08:58:52.276Z,100842.53
2022-09-24T08:59:55.377Z,100838.66
2022-09-24T09:01:05.111Z,100841.19
2022-09-24T09:02:24.534Z,100839.31
2022-09-24T09:03:35.343Z,100840.03
2022-09-24T09:04:49.712Z,100839.19
2022-09-24T09:05:56.565Z,100843.38
2022-09-24T09:07:12.273Z,100842.38
2022-09-24T09:08:47.030Z,100846.41
2022-09-24T09:09:50.884Z,100839.19
2022-09-24T09:10:58.644Z,100845.06
2022-09-24T09:12:04.915Z,100841.88
2022-09-24T09:13:12.481Z,100845.06
2022-09-24T09:14:21.483Z,100842.06
2022-09-24T09:15:26.451Z,100844.41
2022-09-24T09:16:34.641Z,100838.69
2022-09-24T09:17:45.626Z,100841.91
2022-09-24T09:18:50.846Z,100841.41
2022-09-24T09:19:58.541Z,100851.81
2022-09-24T09:21:13.588Z,100846.25
2022-09-24T09:22:17.244Z,100846.78
2022-09-24T09:23:21.361Z,100848.28
2022-09-24T09:24:31.852Z,100846.13
2022-09-24T09:25:37.159Z,100836.91
2022-09-24T09:26:38.708Z,100851.16
2022-09-24T09:27:41.281Z,100843.78
2022-09-24T09:28:42.881Z,100840.75
2022-09-24T09:29:49.101Z,100844.78
2022-09-24T09:31:06.739Z,100845.09
2022-09-24T09:32:17.721Z,100839.06
2022-09-24T09:33:35.735Z,100837.38
2022-09-24T09:34:52.662Z,100843.09
2022-09-24T09:36:02.661Z,100846.94
2022-09-24T09:37:14.360Z,100847.44
2022-09-24T09:38:24.828Z,100844.56
2022-09-24T09:39:38.857Z,100839.03
2022-09-24T09:40:46.790Z,100845.75
2022-09-24T09:41:52.847Z,100844.38
2022-09-24T09:43:02.724Z,100837.00
2022-09-24T09:44:14.837Z,100845.69
2022-09-24T09:45:28.312Z,100834.59
2022-09-24T09:46:34.381Z,100842.31
2022-09-24T09:47:43.189Z,100838.44
2022-09-24T09:48:52.133Z,100831.56
2022-09-24T09:49:58.747Z,100836.59
2022-09-24T09:51:05.033Z,100840.97
2022-09-24T09:52:14.879Z,100836.25
2022-09-24T09:53:21.902Z,100832.19
2022-09-24T09:54:36.816Z,100831.69
2022-09-24T09:55:39.483Z,100836.56
2022-09-24T09:56:44.295Z,100837.69
2022-09-24T09:57:48.410Z,100841.88
2022-09-24T09:58:55.661Z,100839.03
2022-09-24T09:59:57.659Z,100839.88
2022-09-24T10:01:08.542Z,100835.16
2022-09-24T10:02:16.241Z,100834.78
2022-09-24T10:03:27.876Z,100842.50
2022-09-24T10:04:40.432Z,100835.28
2022-09-24T10:05:42.130Z,100833.44
2022-09-24T10:06:44.659Z,100825.03
2022-09-24T10:07:46.397Z,100829.19
2022-09-24T10:08:48.965Z,100828.53
2022-09-24T10:10:01.487Z,100834.34
2022-09-24T10:11:04.600Z,100836.69
2022-09-24T10:12:14.914Z,100832.00
2022-09-24T10:13:17.489Z,100835.53
2022-09-24T10:14:20.599Z,100833.69
2022-09-24T10:15:25.591Z,100832.63
2022-09-24T10:16:27.355Z,100831.63
2022-09-24T10:17:35.377Z,100835.81
2022-09-24T10:18:41.821Z,100834.97
2022-09-24T10:19:47.694Z,100837.84
2022-09-24T10:20:50.402Z,100835.53
2022-09-24T10:21:54.846Z,100840.22
2022-09-24T10:23:01.019Z,100834.84
2022-09-24T10:24:16.547Z,100834.34
2022-09-24T10:25:24.371Z,100834.34
2022-09-24T10:26:34.815Z,100834.34
2022-09-24T10:27:39.238Z,100838.09
2022-09-24T10:29:10.314Z,100835.41
2022-09-24T10:30:34.203Z,100837.03
2022-09-24T10:31:39.965Z,100837.25
2022-09-24T10:32:42.200Z,100836.41
2022-09-24T10:33:48.017Z,100836.88
2022-09-24T10:34:56.948Z,100838.38
2022-09-24T10:36:06.830Z,100845.25
2022-09-24T10:37:15.562Z,100835.34
2022-09-24T10:38:19.279Z,100836.00
2022-09-24T10:39:22.563Z,100837.66
2022-09-24T10:40:30.900Z,100838.34
2022-09-24T10:41:34.549Z,100833.44
2022-09-24T10:42:37.114Z,100834.94
2022-09-24T10:43:39.807Z,100840.13
2022-09-24T10:44:41.863Z,100834.59
2022-09-24T10:46:21.632Z,100831.88
2022-09-24T10:47:33.078Z,100833.56
2022-09-24T10:48:43.584Z,100834.59
2022-09-24T10:49:58.494Z,100830.19
2022-09-24T10:51:12.593Z,100842.66
2022-09-24T10:52:39.243Z,100837.06
2022-09-24T10:53:54.973Z,100831.38
2022-09-24T10:55:07.675Z,100838.25
2022-09-24T10:56:21.617Z,100834.19
2022-09-24T10:57:31.226Z,100830.44
2022-09-24T10:58:50.893Z,100839.84
2022-09-24T11:00:03.388Z,100836.78
2022-09-24T11:01:19.161Z,100837.16
2022-09-24T11:02:34.747Z,100836.47
2022-09-24T11:03:57.438Z,100833.47
2022-09-24T11:05:01.299Z,100842.72
2022-09-24T11:06:18.022Z,100832.13
2022-09-24T11:07:57.149Z,100834.50
2022-09-24T11:09:12.662Z,100831.16
2022-09-24T11:10:25.989Z,100839.25
2022-09-24T11:11:40.395Z,100832.84
2022-09-24T11:12:53.767Z,100834.34
2022-09-24T11:14:03.009Z,100834.19
2022-09-24T11:15:22.405Z,100835.66
2022-09-24T11:16:57.307Z,100834.63
2022-09-24T11:18:14.451Z,100831.78
2022-09-24T11:19:32.639Z,100829.72
2022-09-24T11:20:37.359Z,100830.22
2022-09-24T11:22:00.472Z,100829.06
2022-09-24T11:23:16.869Z,100829.53
2022-09-24T11:24:52.000Z,100828.72
2022-09-24T11:26:03.787Z,100828.34
2022-09-24T11:27:28.961Z,100835.38
2022-09-24T11:29:04.831Z,100829.84
2022-09-24T11:30:13.169Z,100833.84
2022-09-24T11:31:21.798Z,100834.31
2022-09-24T11:32:32.564Z,100832.28
2022-09-24T11:34:03.129Z,100832.28
2022-09-24T11:35:30.980Z,100835.97
2022-09-24T11:36:49.448Z,100831.81
2022-09-24T11:38:01.253Z,100833.84
2022-09-24T11:39:19.832Z,100833.00
2022-09-24T11:40:34.909Z,100830.69
2022-09-24T11:41:50.175Z,100831.03
2022-09-24T11:43:01.881Z,100827.50
2022-09-24T11:44:23.307Z,100830.38
2022-09-24T11:45:51.652Z,100824.34
2022-09-24T11:47:06.226Z,100829.25
2022-09-24T11:48:24.743Z,100822.00
2022-09-24T11:49:43.435Z,100827.72
2022-09-24T11:50:57.236Z,100826.41
2022-09-24T11:52:08.125Z,100829.25
2022-09-24T11:53:15.555Z,100824.06
2022-09-24T11:54:24.607Z,100821.38
2022-09-24T11:55:35.540Z,100822.00
2022-09-24T11:56:42.673Z,100821.00
2022-09-24T11:57:51.375Z,100830.56
2022-09-24T11:58:58.900Z,100829.09
2022-09-24T12:00:07.185Z,100821.38
2022-09-24T12:01:15.447Z,100827.13
2022-09-24T12:02:24.966Z,100814.66
2022-09-24T12:03:45.244Z,100818.56
2022-09-24T12:04:54.793Z,100817.72
2022-09-24T12:06:01.457Z,100814.84
2022-09-24T12:07:13.139Z,100816.34
2022-09-24T12:08:18.725Z,100814.31
2022-09-24T12:09:29.546Z,100812.28
2022-09-24T12:10:36.863Z,100813.94
2022-09-24T12:11:43.360Z,100816.28
2022-09-24T12:12:48.722Z,100810.53
2022-09-24T12:13:57.095Z,100812.91
2022-09-24T12:15:02.675Z,100807.19
2022-09-24T12:16:09.428Z,100808.81
2022-09-24T12:17:18.760Z,100815.91
2022-09-24T12:18:26.116Z,100810.50
2022-09-24T12:19:33.162Z,100811.34
2022-09-24T12:20:45.626Z,100806.97
2022-09-24T12:21:50.078Z,100811.50
2022-09-24T12:23:00.127Z,100813.19
2022-09-24T12:24:10.290Z,100812.56
2022-09-24T12:25:12.797Z,100808.19
2022-09-24T12:26:18.537Z,100802.78
2022-09-24T12:27:28.098Z,100806.69
2022-09-24T12:28:54.777Z,100804.50
2022-09-24T12:30:21.581Z,100806.91
2022-09-24T12:31:48.145Z,100794.81
2022-09-24T12:32:59.417Z,100802.22
2022-09-24T12:34:08.072Z,100799.72
2022-09-24T12:35:19.925Z,100799.06
2022-09-24T12:36:26.031Z,100795.69